createdAt,value
2018-08-18T00:00:37.815Z,2.63
2018-08-18T00:03:07.172Z,2.87
2018-08-18T00:05:37.012Z,2.27
2018-08-18T00:08:07.379Z,2.23
2018-08-18T00:10:36.848Z,2.80
2018-08-18T00:13:08.988Z,2.30
2018-08-18T00:15:38.417Z,2.63
2018-08-18T00:18:07.500Z,2.40
2018-08-18T00:20:36.744Z,3.00
2018-08-18T00:23:07.622Z,3.17
2018-08-18T00:25:36.686Z,3.10
2018-08-18T00:28:16.598Z,3.60
2018-08-18T00:30:45.686Z,3.47
2018-08-18T00:33:14.786Z,3.57
2018-08-18T00:35:44.288Z,3.33
2018-08-18T00:38:13.559Z,3.10
2018-08-18T00:40:42.618Z,3.13
2018-08-18T00:43:11.960Z,3.40
2018-08-18T00:45:41.075Z,3.90
2018-08-18T00:48:10.254Z,3.93
2018-08-18T00:50:43.365Z,3.53
2018-08-18T00:53:14.790Z,3.53
2018-08-18T00:55:44.024Z,3.47
2018-08-18T00:58:17.640Z,3.20
2018-08-18T01:00:51.365Z,2.97
2018-08-18T01:03:20.521Z,3.07
2018-08-18T01:05:49.610Z,3.70
2018-08-18T01:08:19.311Z,3.00
2018-08-18T01:10:48.349Z,3.60
2018-08-18T01:13:17.442Z,3.33
2018-08-18T01:15:47.006Z,3.70
2018-08-18T01:18:16.148Z,3.43
2018-08-18T01:20:45.222Z,3.97
2018-08-18T01:23:14.582Z,3.73
2018-08-18T01:25:43.695Z,3.73
2018-08-18T01:28:12.799Z,3.90
2018-08-18T01:30:42.102Z,3.40
2018-08-18T01:33:11.183Z,3.13
2018-08-18T01:35:40.251Z,3.80
2018-08-18T01:38:09.592Z,3.23
2018-08-18T01:40:38.658Z,3.63
2018-08-18T01:43:08.484Z,3.50
2018-08-18T01:45:37.615Z,3.20
2018-08-18T01:48:07.753Z,3.50
2018-08-18T01:50:36.930Z,2.90
2018-08-18T01:53:07.683Z,3.00
2018-08-18T01:55:36.749Z,2.70
2018-08-18T01:58:07.851Z,3.00
2018-08-18T02:00:36.878Z,3.03
2018-08-18T02:03:08.368Z,2.80
2018-08-18T02:05:52.333Z,3.20
2018-08-18T02:08:24.645Z,3.50
2018-08-18T02:10:53.746Z,3.63
2018-08-18T02:13:23.572Z,4.07
2018-08-18T02:15:52.717Z,3.30
2018-08-18T02:18:21.819Z,4.00
2018-08-18T02:20:51.314Z,3.90
2018-08-18T02:23:20.427Z,3.97
2018-08-18T02:25:49.503Z,3.80
2018-08-18T02:28:27.220Z,4.40
2018-08-18T02:30:56.323Z,4.90
2018-08-18T02:33:25.377Z,4.67
2018-08-18T02:35:54.628Z,5.90
2018-08-18T02:38:23.937Z,5.80
2018-08-18T02:40:53.296Z,5.70
2018-08-18T02:43:24.678Z,6.20
2018-08-18T02:45:53.959Z,5.87
2018-08-18T02:48:23.458Z,4.60
2018-08-18T02:50:52.804Z,4.80
2018-08-18T02:53:26.970Z,5.00
2018-08-18T02:55:56.718Z,5.17
2018-08-18T02:58:25.939Z,4.60
2018-08-18T03:00:55.497Z,4.27
2018-08-18T03:03:25.160Z,4.33
2018-08-18T03:05:57.184Z,4.20
2018-08-18T03:08:26.279Z,4.13
2018-08-18T03:10:55.490Z,5.57
2018-08-18T03:13:27.268Z,5.40
2018-08-18T03:15:57.799Z,5.00
2018-08-18T03:18:54.013Z,5.53
2018-08-18T03:21:29.266Z,6.00
2018-08-18T03:24:11.197Z,6.10
2018-08-18T03:26:46.310Z,7.17
2018-08-18T03:29:16.492Z,6.40
2018-08-18T03:31:46.664Z,8.00
2018-08-18T03:34:16.405Z,8.83
2018-08-18T03:36:49.142Z,8.20
2018-08-18T03:39:29.879Z,8.87
2018-08-18T03:42:04.883Z,6.23
2018-08-18T03:44:40.239Z,6.67
2018-08-18T03:47:09.417Z,6.00
2018-08-18T03:49:38.532Z,5.27
2018-08-18T03:52:08.020Z,5.20
2018-08-18T03:54:37.137Z,5.57
2018-08-18T03:57:07.855Z,11.03
2018-08-18T03:59:36.928Z,10.87
2018-08-18T04:02:07.469Z,10.03
2018-08-18T04:04:37.530Z,9.63
2018-08-18T04:07:09.072Z,10.37
2018-08-18T04:09:39.322Z,11.00
2018-08-18T04:12:09.984Z,7.90
2018-08-18T04:14:41.339Z,7.70
2018-08-18T04:17:21.734Z,7.20
2018-08-18T04:19:51.742Z,9.30
2018-08-18T04:22:22.374Z,8.97
2018-08-18T04:24:51.886Z,5.83
2018-08-18T04:27:35.356Z,5.60
2018-08-18T04:30:05.950Z,10.90
2018-08-18T04:32:48.007Z,5.60
2018-08-18T04:35:17.712Z,6.03
2018-08-18T04:37:46.703Z,5.30
2018-08-18T04:40:15.788Z,5.27
2018-08-18T04:42:45.023Z,5.43
2018-08-18T04:45:15.904Z,4.83
2018-08-18T04:47:45.355Z,5.20
2018-08-18T04:50:14.600Z,5.87
2018-08-18T04:52:43.732Z,5.50
2018-08-18T04:55:14.504Z,5.67
2018-08-18T04:57:43.598Z,5.60
2018-08-18T05:00:13.826Z,5.63
2018-08-18T05:02:59.786Z,5.90
2018-08-18T05:05:30.168Z,5.37
2018-08-18T05:08:01.368Z,4.57
2018-08-18T05:10:30.880Z,5.33
2018-08-18T05:12:59.987Z,5.77
2018-08-18T05:15:29.317Z,5.27
2018-08-18T05:17:58.440Z,6.17
2018-08-18T05:20:28.185Z,5.43
2018-08-18T05:23:12.933Z,5.27
2018-08-18T05:25:42.095Z,6.10
2018-08-18T05:28:11.147Z,5.57
2018-08-18T05:30:40.409Z,5.83
2018-08-18T05:33:10.582Z,5.23
2018-08-18T05:35:42.974Z,5.13
2018-08-18T05:38:12.094Z,6.10
2018-08-18T05:40:41.160Z,6.17
2018-08-18T05:43:11.845Z,5.37
2018-08-18T05:45:40.952Z,6.03
2018-08-18T05:48:10.257Z,6.07
2018-08-18T05:50:39.660Z,5.30
2018-08-18T05:53:33.029Z,6.00
2018-08-18T05:56:03.327Z,6.37
2018-08-18T05:58:49.108Z,6.53
2018-08-18T06:01:27.902Z,6.53
2018-08-18T06:04:04.175Z,6.20
2018-08-18T06:06:33.816Z,5.80
2018-08-18T06:09:02.891Z,6.30
2018-08-18T06:11:32.124Z,6.50
2018-08-18T06:14:01.220Z,7.23
2018-08-18T06:16:30.317Z,6.80
2018-08-18T06:18:59.810Z,6.03
2018-08-18T06:21:28.930Z,6.20
2018-08-18T06:23:58.500Z,5.83
2018-08-18T06:26:28.400Z,6.23
2018-08-18T06:28:58.429Z,6.80
2018-08-18T06:31:27.531Z,6.50
2018-08-18T06:33:56.658Z,5.90
2018-08-18T06:36:26.420Z,6.43
2018-08-18T06:38:55.540Z,6.87
2018-08-18T06:41:24.736Z,6.50
2018-08-18T06:43:54.148Z,6.73
2018-08-18T06:46:23.219Z,6.63
2018-08-18T06:48:52.472Z,5.90
2018-08-18T06:51:21.929Z,5.87
2018-08-18T06:53:51.006Z,5.30
2018-08-18T06:56:20.125Z,5.70
2018-08-18T06:58:49.921Z,5.87
2018-08-18T07:01:18.996Z,5.20
2018-08-18T07:03:48.533Z,5.90
2018-08-18T07:06:18.223Z,6.00
2018-08-18T07:08:54.423Z,5.80
2018-08-18T07:11:31.236Z,5.40
2018-08-18T07:14:01.928Z,5.47
2018-08-18T07:16:30.985Z,5.90
2018-08-18T07:19:00.116Z,5.43
2018-08-18T07:21:29.408Z,5.53
2018-08-18T07:23:58.622Z,5.27
2018-08-18T07:26:28.114Z,5.90
2018-08-18T07:28:57.304Z,5.93
2018-08-18T07:31:26.702Z,5.73
2018-08-18T07:33:55.820Z,5.30
2018-08-18T07:36:24.945Z,5.57
2018-08-18T07:38:54.438Z,5.10
2018-08-18T07:41:23.545Z,4.73
2018-08-18T07:43:52.618Z,5.50
2018-08-18T07:46:22.507Z,5.53
2018-08-18T07:48:51.818Z,4.83
2018-08-18T07:51:20.915Z,5.27
2018-08-18T07:53:49.990Z,5.00
2018-08-18T07:56:19.258Z,4.90
2018-08-18T07:58:48.322Z,5.30
2018-08-18T08:01:17.402Z,5.63
2018-08-18T08:03:46.694Z,4.70
2018-08-18T08:06:15.792Z,5.30
2018-08-18T08:08:49.578Z,5.33
2018-08-18T08:11:18.678Z,5.13
2018-08-18T08:13:47.825Z,5.47
2018-08-18T08:16:17.089Z,5.23
2018-08-18T08:18:46.200Z,5.50
2018-08-18T08:21:15.589Z,5.13
2018-08-18T08:23:44.701Z,5.00
2018-08-18T08:26:13.818Z,5.13
2018-08-18T08:28:43.275Z,5.63
2018-08-18T08:31:12.350Z,5.47
2018-08-18T08:33:41.513Z,4.57
2018-08-18T08:36:17.322Z,4.83
2018-08-18T08:38:51.377Z,5.17
2018-08-18T08:41:23.076Z,5.60
2018-08-18T08:43:52.117Z,5.20
2018-08-18T08:46:21.499Z,5.37
2018-08-18T08:48:55.680Z,5.27
2018-08-18T08:51:25.512Z,4.80
2018-08-18T08:53:56.023Z,4.60
2018-08-18T08:56:35.762Z,4.40
2018-08-18T08:59:05.124Z,3.70
2018-08-18T09:01:34.813Z,4.00
2018-08-18T09:04:04.767Z,3.67
2018-08-18T09:06:35.438Z,3.50
2018-08-18T09:09:06.931Z,3.50
2018-08-18T09:11:36.266Z,3.97
2018-08-18T09:14:07.574Z,3.10
2018-08-18T09:16:36.948Z,3.53
2018-08-18T09:19:06.043Z,3.40
2018-08-18T09:21:44.147Z,3.67
2018-08-18T09:24:13.579Z,4.03
2018-08-18T09:26:47.986Z,4.20
2018-08-18T09:29:17.059Z,3.87
2018-08-18T09:31:46.527Z,3.80
2018-08-18T09:34:16.376Z,4.23
2018-08-18T09:36:46.476Z,4.40
2018-08-18T09:39:33.583Z,3.80
2018-08-18T09:42:03.566Z,4.50
2018-08-18T09:44:34.931Z,4.43
2018-08-18T09:47:04.373Z,4.50
2018-08-18T09:49:33.616Z,4.03
2018-08-18T09:52:02.805Z,4.83
2018-08-18T09:54:32.092Z,4.43
2018-08-18T09:57:01.313Z,4.40
2018-08-18T09:59:31.336Z,4.90
2018-08-18T10:02:00.696Z,4.50
2018-08-18T10:04:29.814Z,4.43
2018-08-18T10:06:58.919Z,4.90
2018-08-18T10:09:28.280Z,4.60
2018-08-18T10:11:57.589Z,5.47
2018-08-18T10:14:26.702Z,5.50
2018-08-18T10:16:55.817Z,5.10
2018-08-18T10:19:25.027Z,5.10
2018-08-18T10:21:54.379Z,6.57
2018-08-18T10:24:23.766Z,6.57
2018-08-18T10:26:58.225Z,7.23
2018-08-18T10:29:27.887Z,6.67
2018-08-18T10:31:57.988Z,5.60
2018-08-18T10:34:28.471Z,6.23
2018-08-18T10:37:02.827Z,6.60
2018-08-18T10:39:32.140Z,6.53
2018-08-18T10:42:22.997Z,5.97
2018-08-18T10:44:57.679Z,6.20
2018-08-18T10:47:26.790Z,5.40
2018-08-18T10:50:07.564Z,5.47
2018-08-18T10:52:48.031Z,6.20
2018-08-18T10:55:18.458Z,6.33
2018-08-18T10:57:59.293Z,6.10
2018-08-18T11:00:29.954Z,6.23
2018-08-18T11:03:06.442Z,6.60
2018-08-18T11:05:36.037Z,6.77
2018-08-18T11:08:08.949Z,7.13
2018-08-18T11:10:40.749Z,6.00
2018-08-18T11:13:09.864Z,4.90
2018-08-18T11:15:39.146Z,4.93
2018-08-18T11:18:08.660Z,5.43
2018-08-18T11:20:37.734Z,5.70
2018-08-18T11:23:14.487Z,6.57
2018-08-18T11:25:47.884Z,5.33
2018-08-18T11:28:18.127Z,4.73
2018-08-18T11:30:47.272Z,4.90
2018-08-18T11:33:33.017Z,5.50
2018-08-18T11:36:02.330Z,5.90
2018-08-18T11:38:31.898Z,4.73
2018-08-18T11:41:01.780Z,4.50
2018-08-18T11:43:33.541Z,4.57
2018-08-18T11:46:02.738Z,4.23
2018-08-18T11:48:32.330Z,3.63
2018-08-18T11:51:01.822Z,3.73
2018-08-18T11:53:30.886Z,4.60
2018-08-18T11:55:59.982Z,5.50
2018-08-18T11:58:29.530Z,4.70
2018-08-18T12:00:59.801Z,5.30
2018-08-18T12:03:32.346Z,5.00
2018-08-18T12:06:04.800Z,4.00
2018-08-18T12:08:35.932Z,3.10
2018-08-18T12:11:06.925Z,3.43
2018-08-18T12:13:41.053Z,2.73
2018-08-18T12:16:16.070Z,2.60
2018-08-18T12:18:46.187Z,2.87
2018-08-18T12:21:15.692Z,3.33
2018-08-18T12:23:46.551Z,2.77
2018-08-18T12:26:22.126Z,2.50
2018-08-18T12:28:53.903Z,2.80
2018-08-18T12:31:24.467Z,2.50
2018-08-18T12:33:54.132Z,2.58
2018-08-18T12:36:23.537Z,3.50
2018-08-18T12:38:56.216Z,4.40
2018-08-18T12:41:25.309Z,2.85
2018-08-18T12:43:56.370Z,2.67
2018-08-18T12:46:30.692Z,2.85
2018-08-18T12:49:00.250Z,2.77
2018-08-18T12:51:29.336Z,2.12
2018-08-18T12:53:58.469Z,2.30
2018-08-18T12:56:28.701Z,2.40
2018-08-18T12:58:57.806Z,3.10
2018-08-18T13:01:41.453Z,2.25
2018-08-18T13:04:13.101Z,2.67
2018-08-18T13:06:44.716Z,2.40
2018-08-18T13:09:15.026Z,2.40
2018-08-18T13:11:45.568Z,2.50
2018-08-18T13:14:22.288Z,2.75
2018-08-18T13:16:52.082Z,2.42
2018-08-18T13:19:23.306Z,2.08
2018-08-18T13:21:53.174Z,2.55
2018-08-18T13:24:22.545Z,3.20
2018-08-18T13:26:51.724Z,3.30
2018-08-18T13:29:21.246Z,2.60
2018-08-18T13:31:50.324Z,2.50
2018-08-18T13:34:19.549Z,2.65
2018-08-18T13:36:48.778Z,2.92
2018-08-18T13:39:19.094Z,2.37
2018-08-18T13:41:49.489Z,2.72
2018-08-18T13:44:27.160Z,2.40
2018-08-18T13:46:56.485Z,2.87
2018-08-18T13:49:26.436Z,2.05
2018-08-18T13:51:55.584Z,2.80
2018-08-18T13:54:25.395Z,2.52
2018-08-18T13:56:54.469Z,2.75
2018-08-18T14:02:16.463Z,2.25
2018-08-18T14:04:45.560Z,2.42
2018-08-18T14:07:14.856Z,2.25
2018-08-18T14:09:48.722Z,2.35
2018-08-18T14:12:18.671Z,2.17
2018-08-18T14:14:48.499Z,2.20
2018-08-18T14:17:19.994Z,1.80
2018-08-18T14:19:50.015Z,2.17
2018-08-18T14:22:20.130Z,1.80
2018-08-18T14:24:49.196Z,2.67
2018-08-18T14:27:21.091Z,2.33
2018-08-18T14:29:50.213Z,2.05
2018-08-18T14:32:25.414Z,2.75
2018-08-18T14:34:59.395Z,2.12
2018-08-18T14:37:28.748Z,2.10
2018-08-18T14:39:57.934Z,1.47
2018-08-18T14:42:26.967Z,1.80
2018-08-18T14:44:56.684Z,2.20
2018-08-18T14:47:25.865Z,2.17
2018-08-18T14:50:10.763Z,2.05
2018-08-18T14:52:40.067Z,2.00
2018-08-18T14:55:09.286Z,2.05
2018-08-18T14:57:46.296Z,2.20
2018-08-18T15:00:15.369Z,1.80
2018-08-18T15:02:44.454Z,2.33
2018-08-18T15:05:13.722Z,1.90
2018-08-18T15:07:47.455Z,1.75
2018-08-18T15:10:31.493Z,1.80
2018-08-18T15:13:01.295Z,3.85
2018-08-18T15:15:31.356Z,2.17
2018-08-18T15:18:02.503Z,2.08
2018-08-18T15:20:33.856Z,2.12
2018-08-18T15:23:03.804Z,2.37
2018-08-18T15:25:34.096Z,2.30
2018-08-18T15:28:04.361Z,1.90
2018-08-18T15:30:34.329Z,1.80
2018-08-18T15:33:03.448Z,1.55
2018-08-18T15:35:35.989Z,1.47
2018-08-18T15:38:06.242Z,1.67
2018-08-18T15:40:35.323Z,1.98
2018-08-18T15:43:04.742Z,1.90
2018-08-18T15:45:42.598Z,2.17
2018-08-18T15:48:11.697Z,1.57
2018-08-18T15:50:40.744Z,1.50
2018-08-18T15:53:10.137Z,2.10
2018-08-18T15:55:39.432Z,2.08
2018-08-18T15:58:08.528Z,2.00
2018-08-18T16:00:38.012Z,2.22
2018-08-18T16:03:07.111Z,1.87
2018-08-18T16:05:36.462Z,2.75
2018-08-18T16:08:05.699Z,1.80
2018-08-18T16:10:34.921Z,1.92
2018-08-18T16:13:03.988Z,2.05
2018-08-18T16:15:33.058Z,2.20
2018-08-18T16:18:02.500Z,1.60
2018-08-18T16:20:32.967Z,1.52
2018-08-18T16:23:03.251Z,2.00
2018-08-18T16:25:36.782Z,2.05
2018-08-18T16:28:06.826Z,1.65
2018-08-18T16:30:36.450Z,1.70
2018-08-18T16:33:19.099Z,3.12
2018-08-18T16:35:48.744Z,2.02
2018-08-18T16:38:17.831Z,2.08
2018-08-18T16:40:46.942Z,1.70
2018-08-18T16:43:17.091Z,2.42
2018-08-18T16:45:46.180Z,2.10
2018-08-18T16:48:15.246Z,2.23
2018-08-18T16:50:44.615Z,2.20
2018-08-18T16:53:14.546Z,1.53
2018-08-18T16:55:45.257Z,2.00
2018-08-18T16:58:14.488Z,1.80
2018-08-18T17:00:56.900Z,2.30
2018-08-18T17:03:30.714Z,1.90
2018-08-18T17:06:01.071Z,2.47
2018-08-18T17:08:30.916Z,1.87
2018-08-18T17:11:00.315Z,2.00
2018-08-18T17:13:32.567Z,1.90
2018-08-18T17:16:02.053Z,1.90
2018-08-18T17:18:31.183Z,2.27
2018-08-18T17:21:02.619Z,1.90
2018-08-18T17:23:33.376Z,1.80
2018-08-18T17:26:02.853Z,2.23
2018-08-18T17:28:32.728Z,2.10
2018-08-18T17:31:02.413Z,1.97
2018-08-18T17:33:32.498Z,2.10
2018-08-18T17:36:01.724Z,2.77
2018-08-18T17:38:30.826Z,1.93
2018-08-18T17:41:00.098Z,2.07
2018-08-18T17:43:30.112Z,2.57
2018-08-18T17:46:00.735Z,2.43
2018-08-18T17:48:33.603Z,2.40
2018-08-18T17:51:02.721Z,2.90
2018-08-18T17:53:31.911Z,2.70
2018-08-18T17:56:05.098Z,2.70
2018-08-18T17:58:34.908Z,2.80
2018-08-18T18:01:06.276Z,2.60
2018-08-18T18:03:35.998Z,2.80
2018-08-18T18:06:05.154Z,2.70
2018-08-18T18:08:34.289Z,2.70
2018-08-18T18:11:03.784Z,3.40
2018-08-18T18:13:34.941Z,3.03
2018-08-18T18:16:10.000Z,4.30
2018-08-18T18:18:44.900Z,3.50
2018-08-18T18:21:14.277Z,3.30
2018-08-18T18:23:43.817Z,4.10
2018-08-18T18:26:12.297Z,3.90
2018-08-18T18:28:41.222Z,3.57
2018-08-18T18:31:10.290Z,4.10
2018-08-18T18:33:40.007Z,3.60
2018-08-18T18:36:09.093Z,3.50
2018-08-18T18:38:53.093Z,4.13
2018-08-18T18:41:22.183Z,4.07
2018-08-18T18:43:59.085Z,4.37
2018-08-18T18:46:28.343Z,4.93
2018-08-18T18:48:57.688Z,4.10
2018-08-18T18:51:27.219Z,3.90
2018-08-18T18:53:57.614Z,3.73
2018-08-18T18:56:26.963Z,3.77
2018-08-18T18:58:56.111Z,3.83
2018-08-18T19:01:27.166Z,3.30
2018-08-18T19:03:56.262Z,3.37
2018-08-18T19:06:25.390Z,4.23
2018-08-18T19:09:02.140Z,4.33
2018-08-18T19:11:31.366Z,3.53
2018-08-18T19:14:00.731Z,4.17
2018-08-18T19:16:29.791Z,3.87
2018-08-18T19:18:58.848Z,3.50
2018-08-18T19:21:30.845Z,3.87
2018-08-18T19:24:00.603Z,4.43
2018-08-18T19:26:44.752Z,3.97
2018-08-18T19:29:14.029Z,4.07
2018-08-18T19:31:43.149Z,4.53
2018-08-18T19:34:15.833Z,4.67
2018-08-18T19:36:56.312Z,5.07
2018-08-18T19:39:27.429Z,4.40
2018-08-18T19:42:06.864Z,4.80
2018-08-18T19:44:48.711Z,5.20
2018-08-18T19:47:26.221Z,5.20
2018-08-18T19:49:55.500Z,6.20
2018-08-18T19:52:24.808Z,6.17
2018-08-18T19:54:54.044Z,5.10
2018-08-18T19:57:29.026Z,4.60
2018-08-18T20:00:07.932Z,4.20
2018-08-18T20:02:52.452Z,4.70
2018-08-18T20:05:22.704Z,4.80
2018-08-18T20:07:52.164Z,4.63
2018-08-18T20:10:21.238Z,4.80
2018-08-18T20:12:50.482Z,4.97
2018-08-18T20:15:19.604Z,4.87
2018-08-18T20:17:48.876Z,4.73
2018-08-18T20:20:23.616Z,4.93
2018-08-18T20:22:53.195Z,4.40
2018-08-18T20:25:22.256Z,4.73
2018-08-18T20:27:51.507Z,5.77
2018-08-18T20:30:20.590Z,5.00
2018-08-18T20:32:49.901Z,5.30
2018-08-18T20:35:19.009Z,4.90
2018-08-18T20:37:48.199Z,5.90
2018-08-18T20:40:17.264Z,5.50
2018-08-18T20:42:46.340Z,4.93
2018-08-18T20:45:15.572Z,5.23
2018-08-18T20:47:45.363Z,5.37
2018-08-18T20:50:20.336Z,5.00
2018-08-18T20:52:49.556Z,4.70
2018-08-18T20:55:18.622Z,5.53
2018-08-18T20:57:48.621Z,5.70
2018-08-18T21:00:18.485Z,5.13
2018-08-18T21:02:47.502Z,5.40
2018-08-18T21:05:16.922Z,5.70
2018-08-18T21:07:46.113Z,5.73
2018-08-18T21:10:15.547Z,4.80
2018-08-18T21:12:47.145Z,5.30
2018-08-18T21:15:17.395Z,4.77
2018-08-18T21:17:46.583Z,4.70
2018-08-18T21:20:17.975Z,5.10
2018-08-18T21:22:47.053Z,5.17
2018-08-18T21:25:24.636Z,5.10
2018-08-18T21:27:53.777Z,4.70
2018-08-18T21:30:22.922Z,4.50
2018-08-18T21:32:52.340Z,5.50
2018-08-18T21:35:21.432Z,4.77
2018-08-18T21:37:51.569Z,4.57
2018-08-18T21:40:20.975Z,5.17
2018-08-18T21:42:50.065Z,9.50
2018-08-18T21:45:19.228Z,4.93
2018-08-18T21:47:48.645Z,5.20
2018-08-18T21:50:17.715Z,4.47
2018-08-18T21:52:46.812Z,5.37
2018-08-18T21:55:16.098Z,4.90
2018-08-18T21:57:56.054Z,6.03
2018-08-18T22:00:30.515Z,5.93
2018-08-18T22:02:59.780Z,5.67
2018-08-18T22:05:31.894Z,7.00
2018-08-18T22:08:01.156Z,6.40
2018-08-18T22:10:38.068Z,6.60
2018-08-18T22:13:07.354Z,6.23
2018-08-18T22:15:36.455Z,7.37
2018-08-18T22:18:05.711Z,6.07
2018-08-18T22:20:35.477Z,5.93
2018-08-18T22:23:07.241Z,5.93
2018-08-18T22:25:37.053Z,6.50
2018-08-18T22:28:06.250Z,5.60
2018-08-18T22:30:35.423Z,5.70
2018-08-18T22:33:04.782Z,6.77
2018-08-18T22:35:33.912Z,7.53
2018-08-18T22:38:03.000Z,7.43
2018-08-18T22:40:33.537Z,6.93
2018-08-18T22:43:02.596Z,6.50
2018-08-18T22:45:31.759Z,6.87
2018-08-18T22:48:01.334Z,6.67
2018-08-18T22:50:30.498Z,6.03
2018-08-18T22:52:59.587Z,6.20
2018-08-18T22:55:31.920Z,6.50
2018-08-18T22:58:02.062Z,5.87
2018-08-18T23:00:34.210Z,7.07
2018-08-18T23:03:03.416Z,6.07
2018-08-18T23:05:32.493Z,5.93
2018-08-18T23:08:01.816Z,6.13
2018-08-18T23:10:32.211Z,6.13
2018-08-18T23:13:02.869Z,6.13
2018-08-18T23:15:31.981Z,5.90
2018-08-18T23:18:01.353Z,6.80
2018-08-18T23:20:30.696Z,5.73
2018-08-18T23:23:00.922Z,5.90
2018-08-18T23:25:31.483Z,5.80
2018-08-18T23:28:00.580Z,5.90
2018-08-18T23:30:37.827Z,6.10
2018-08-18T23:33:08.558Z,5.87
2018-08-18T23:35:37.984Z,6.53
2018-08-18T23:38:07.146Z,6.30
2018-08-18T23:40:36.939Z,6.80
2018-08-18T23:43:06.247Z,6.83
2018-08-18T23:45:41.072Z,6.60
2018-08-18T23:48:12.255Z,6.17
2018-08-18T23:50:42.917Z,6.27
2018-08-18T23:53:13.805Z,6.10
2018-08-18T23:55:50.245Z,6.20
2018-08-18T23:58:21.708Z,6.33
